createdAt,value
2022-11-29T00:02:19.821Z,25.77
2022-11-29T00:04:50.305Z,24.48
2022-11-29T00:07:21.126Z,23.60
2022-11-29T00:09:51.259Z,22.70
2022-11-29T00:12:21.816Z,20.98
2022-11-29T00:14:53.527Z,23.73
2022-11-29T00:17:24.226Z,23.67
2022-11-29T00:19:56.165Z,22.85
2022-11-29T00:22:26.897Z,22.38
2022-11-29T00:24:57.217Z,21.77
2022-11-29T00:27:28.229Z,24.90
2022-11-29T00:30:00.626Z,19.95
2022-11-29T00:32:31.285Z,20.67
2022-11-29T00:35:06.617Z,21.83
2022-11-29T00:37:40.416Z,21.15
2022-11-29T00:40:11.575Z,21.33
2022-11-29T00:42:42.074Z,21.52
2022-11-29T00:45:14.165Z,20.35
2022-11-29T00:47:44.906Z,20.67
2022-11-29T00:50:15.166Z,20.35
2022-11-29T00:52:45.885Z,19.00
2022-11-29T00:55:17.344Z,19.67
2022-11-29T00:57:47.856Z,19.13
2022-11-29T01:00:20.995Z,20.55
2022-11-29T01:02:51.574Z,18.85
2022-11-29T01:05:21.709Z,19.50
2022-11-29T01:07:52.422Z,18.98
2022-11-29T01:10:22.785Z,19.42
2022-11-29T01:12:53.568Z,19.73
2022-11-29T01:15:26.487Z,18.52
2022-11-29T01:17:57.085Z,19.17
2022-11-29T01:20:27.595Z,17.30
2022-11-29T01:22:58.955Z,20.10
2022-11-29T01:25:29.717Z,18.60
2022-11-29T01:28:01.486Z,16.85
2022-11-29T01:30:33.259Z,19.33
2022-11-29T01:33:03.846Z,17.88
2022-11-29T01:35:34.757Z,18.02
2022-11-29T01:38:05.268Z,18.23
2022-11-29T01:40:35.538Z,16.70
2022-11-29T01:43:17.275Z,17.50
2022-11-29T01:45:51.516Z,16.48
2022-11-29T01:48:26.826Z,16.77
2022-11-29T01:51:00.936Z,17.42
2022-11-29T01:53:31.584Z,16.67
2022-11-29T01:56:06.009Z,17.75
2022-11-29T01:58:37.839Z,18.15
2022-11-29T02:01:09.619Z,17.38
2022-11-29T02:03:41.605Z,18.17
2022-11-29T02:06:12.297Z,17.75
2022-11-29T02:08:44.519Z,16.52
2022-11-29T02:12:04.147Z,17.13
2022-11-29T02:15:00.518Z,16.17
2022-11-29T02:17:42.940Z,18.63
2022-11-29T02:20:49.767Z,16.23
2022-11-29T02:23:50.785Z,15.23
2022-11-29T02:26:45.647Z,17.30
2022-11-29T02:29:53.058Z,18.30
2022-11-29T02:32:58.696Z,15.45
2022-11-29T02:36:00.935Z,18.23
2022-11-29T02:38:46.415Z,17.35
2022-11-29T02:41:31.865Z,17.77
2022-11-29T02:44:47.726Z,15.98
2022-11-29T02:47:29.866Z,18.90
2022-11-29T02:50:21.716Z,16.70
2022-11-29T02:53:03.467Z,15.40
2022-11-29T02:55:45.607Z,14.23
2022-11-29T03:01:00.801Z,13.93
2022-11-29T03:03:38.975Z,13.27
2022-11-29T03:06:19.939Z,14.18
2022-11-29T03:09:01.778Z,15.20
2022-11-29T03:11:41.757Z,14.15
2022-11-29T03:14:23.048Z,14.05
2022-11-29T03:19:57.347Z,13.07
2022-11-29T03:22:43.556Z,11.40
2022-11-29T03:25:24.936Z,14.32
2022-11-29T03:28:02.780Z,13.90
2022-11-29T03:30:40.647Z,13.23
2022-11-29T03:33:18.947Z,14.38
2022-11-29T03:35:56.527Z,12.75
2022-11-29T03:38:34.804Z,12.50
2022-11-29T03:41:16.537Z,13.68
2022-11-29T03:43:55.888Z,13.95
2022-11-29T03:46:32.238Z,12.57
2022-11-29T03:49:10.374Z,14.75
2022-11-29T03:51:57.787Z,13.65
2022-11-29T03:54:37.495Z,14.23
2022-11-29T03:57:09.115Z,13.27
2022-11-29T03:59:57.962Z,13.52
2022-11-29T04:03:15.606Z,14.43
2022-11-29T04:06:12.736Z,16.33
2022-11-29T04:09:23.181Z,14.35
2022-11-29T04:12:24.067Z,13.63
2022-11-29T04:15:26.868Z,16.00
2022-11-29T04:18:39.167Z,13.77
2022-11-29T04:22:01.376Z,14.57
2022-11-29T04:25:14.868Z,14.57
2022-11-29T04:28:21.035Z,13.35
2022-11-29T04:31:01.919Z,15.88
2022-11-29T04:34:10.167Z,14.35
2022-11-29T04:37:19.336Z,15.18
2022-11-29T04:40:31.957Z,14.95
2022-11-29T04:43:36.616Z,12.88
2022-11-29T04:46:36.141Z,14.98
2022-11-29T04:49:22.430Z,14.63
2022-11-29T04:52:17.561Z,13.50
2022-11-29T04:54:56.566Z,13.93
2022-11-29T04:57:38.747Z,13.02
2022-11-29T05:00:21.763Z,14.68
2022-11-29T05:02:58.238Z,16.88
2022-11-29T05:05:37.608Z,15.10
2022-11-29T05:08:28.517Z,15.45
2022-11-29T05:11:08.095Z,13.63
2022-11-29T05:13:52.126Z,14.63
2022-11-29T05:16:47.393Z,15.35
2022-11-29T05:19:37.746Z,15.93
2022-11-29T05:22:25.427Z,16.35
2022-11-29T05:25:04.617Z,16.42
2022-11-29T05:27:48.526Z,15.93
2022-11-29T05:30:22.281Z,16.75
2022-11-29T05:33:01.536Z,15.80
2022-11-29T05:35:54.715Z,16.83
2022-11-29T05:38:53.096Z,16.63
2022-11-29T05:41:57.807Z,16.33
2022-11-29T05:44:35.378Z,15.98
2022-11-29T05:47:10.288Z,17.27
2022-11-29T05:49:51.959Z,16.13
2022-11-29T05:52:27.197Z,15.38
2022-11-29T05:55:29.756Z,16.40
2022-11-29T05:58:04.047Z,16.55
2022-11-29T06:00:43.546Z,14.35
2022-11-29T06:03:22.173Z,15.30
2022-11-29T06:05:59.571Z,15.93
2022-11-29T06:08:39.076Z,17.00
2022-11-29T06:11:25.230Z,14.90
2022-11-29T06:14:06.548Z,17.08
2022-11-29T06:17:27.198Z,19.90
2022-11-29T06:20:32.265Z,16.05
2022-11-29T06:23:30.445Z,20.35
2022-11-29T06:26:19.976Z,19.02
2022-11-29T06:29:03.486Z,17.27
2022-11-29T06:31:39.213Z,17.33
2022-11-29T06:34:19.588Z,14.48
2022-11-29T06:36:54.577Z,17.38
2022-11-29T06:39:27.488Z,17.08
2022-11-29T06:41:58.345Z,16.77
2022-11-29T06:44:33.095Z,16.83
2022-11-29T06:47:09.115Z,15.45
2022-11-29T06:49:47.219Z,17.13
2022-11-29T06:52:29.257Z,17.55
2022-11-29T06:55:28.529Z,16.05
2022-11-29T06:58:09.104Z,15.95
2022-11-29T07:00:53.234Z,16.90
2022-11-29T07:03:56.046Z,17.70
2022-11-29T07:06:30.008Z,15.93
2022-11-29T07:09:05.185Z,16.52
2022-11-29T07:11:38.646Z,15.68
2022-11-29T07:14:10.124Z,17.02
2022-11-29T07:16:57.335Z,15.82
2022-11-29T07:19:39.456Z,17.00
2022-11-29T07:22:24.145Z,17.80
2022-11-29T07:25:02.583Z,17.13
2022-11-29T07:27:46.337Z,17.20
2022-11-29T07:30:22.016Z,18.98
2022-11-29T07:33:06.616Z,18.42
2022-11-29T07:35:48.461Z,17.75
2022-11-29T07:38:27.375Z,16.90
2022-11-29T07:41:05.027Z,16.83
2022-11-29T07:43:51.057Z,18.27
2022-11-29T07:46:21.488Z,18.52
2022-11-29T07:48:54.027Z,17.40
2022-11-29T07:51:27.147Z,17.52
2022-11-29T07:53:57.985Z,17.00
2022-11-29T07:56:29.536Z,18.38
2022-11-29T07:59:04.502Z,16.70
2022-11-29T08:01:34.966Z,18.20
2022-11-29T08:04:06.207Z,17.60
2022-11-29T08:06:37.538Z,18.27
2022-11-29T08:09:09.455Z,18.42
2022-11-29T08:11:40.785Z,17.90
2022-11-29T08:14:15.689Z,19.63
2022-11-29T08:16:45.824Z,16.85
2022-11-29T08:19:16.410Z,19.50
2022-11-29T08:21:48.597Z,18.58
2022-11-29T08:24:22.647Z,20.13
2022-11-29T08:26:53.058Z,20.75
2022-11-29T08:29:25.718Z,17.60
2022-11-29T08:31:59.967Z,19.08
2022-11-29T08:34:30.987Z,18.60
2022-11-29T08:37:01.316Z,18.17
2022-11-29T08:39:32.357Z,21.20
2022-11-29T08:42:02.719Z,20.45
2022-11-29T08:44:37.077Z,18.40
2022-11-29T08:47:25.316Z,18.55
2022-11-29T08:50:05.296Z,19.90
2022-11-29T08:52:55.698Z,19.10
2022-11-29T08:55:29.396Z,18.37
2022-11-29T08:58:04.916Z,18.45
2022-11-29T09:00:38.407Z,19.05
2022-11-29T09:03:28.206Z,20.50
2022-11-29T09:06:00.047Z,16.92
2022-11-29T09:11:05.727Z,17.73
2022-11-29T09:13:36.318Z,17.55
2022-11-29T09:16:12.953Z,19.63
2022-11-29T09:18:48.550Z,20.38
2022-11-29T09:21:21.968Z,20.42
2022-11-29T09:23:59.303Z,19.13
2022-11-29T09:26:33.269Z,18.83
2022-11-29T09:29:07.167Z,18.73
2022-11-29T09:31:39.642Z,21.35
2022-11-29T09:34:10.857Z,19.15
2022-11-29T09:36:43.386Z,20.52
2022-11-29T09:39:14.366Z,18.80
2022-11-29T09:42:02.579Z,18.55
2022-11-29T09:44:45.045Z,19.20
2022-11-29T09:47:33.606Z,18.10
2022-11-29T09:50:25.474Z,19.23
2022-11-29T09:53:18.693Z,19.52
2022-11-29T09:56:11.916Z,19.92
2022-11-29T09:58:49.876Z,19.67
2022-11-29T10:01:28.818Z,20.08
2022-11-29T10:04:07.660Z,23.05
2022-11-29T10:06:42.888Z,21.83
2022-11-29T10:09:22.585Z,21.30
2022-11-29T10:12:05.308Z,20.75
2022-11-29T10:14:45.060Z,20.60
2022-11-29T10:17:26.590Z,22.38
2022-11-29T10:20:05.961Z,21.88
2022-11-29T10:22:49.639Z,18.65
2022-11-29T10:25:26.277Z,22.13
2022-11-29T10:27:57.012Z,22.35
2022-11-29T10:30:27.820Z,20.95
2022-11-29T10:33:00.625Z,21.90
2022-11-29T10:35:36.357Z,22.13
2022-11-29T10:38:30.374Z,23.55
2022-11-29T10:41:04.734Z,24.00
2022-11-29T10:43:37.720Z,23.95
2022-11-29T10:46:17.029Z,22.58
2022-11-29T10:48:47.626Z,20.20
2022-11-29T10:51:20.779Z,21.98
2022-11-29T10:53:56.762Z,21.50
2022-11-29T10:56:35.877Z,21.83
2022-11-29T10:59:09.786Z,21.42
2022-11-29T11:01:45.879Z,21.85
2022-11-29T11:04:25.247Z,21.42
2022-11-29T11:07:01.997Z,21.63
2022-11-29T11:09:38.022Z,19.98
2022-11-29T11:12:18.665Z,20.85
2022-11-29T11:14:49.335Z,20.83
2022-11-29T11:17:26.594Z,22.77
2022-11-29T11:19:59.128Z,20.48
2022-11-29T11:22:33.317Z,19.17
2022-11-29T11:25:07.636Z,23.13
2022-11-29T11:27:41.408Z,21.83
2022-11-29T11:30:23.748Z,22.38
2022-11-29T11:33:19.666Z,20.50
2022-11-29T11:36:07.508Z,21.15
2022-11-29T11:38:41.889Z,21.08
2022-11-29T11:41:49.776Z,22.92
2022-11-29T11:44:53.792Z,22.65
2022-11-29T11:47:26.266Z,19.35
2022-11-29T11:50:09.786Z,24.00
2022-11-29T11:52:50.469Z,20.58
2022-11-29T11:55:35.098Z,21.35
2022-11-29T11:58:18.204Z,19.48
2022-11-29T12:01:09.399Z,21.50
2022-11-29T12:03:50.169Z,21.50
2022-11-29T12:06:42.819Z,22.45
2022-11-29T12:09:23.223Z,23.20
2022-11-29T12:12:04.126Z,20.65
2022-11-29T12:14:45.056Z,22.67
2022-11-29T12:20:14.553Z,20.20
2022-11-29T12:22:54.952Z,22.58
2022-11-29T12:25:34.171Z,20.58
2022-11-29T12:28:17.091Z,20.75
2022-11-29T12:30:56.485Z,20.20
2022-11-29T12:33:40.546Z,21.90
2022-11-29T12:36:21.887Z,23.05
2022-11-29T12:41:53.822Z,23.40
2022-11-29T12:44:55.942Z,22.38
2022-11-29T12:47:40.321Z,21.23
2022-11-29T12:50:30.453Z,22.92
2022-11-29T12:53:25.539Z,23.38
2022-11-29T12:56:13.969Z,23.63
2022-11-29T12:59:07.691Z,23.42
2022-11-29T13:01:56.950Z,26.35
2022-11-29T13:04:36.773Z,25.20
2022-11-29T13:07:20.266Z,23.65
2022-11-29T13:10:18.018Z,25.13
2022-11-29T13:12:53.872Z,26.27
2022-11-29T13:15:26.842Z,25.52
2022-11-29T13:18:08.857Z,25.70
2022-11-29T13:20:47.560Z,24.58
2022-11-29T13:23:45.895Z,25.15
2022-11-29T13:26:19.922Z,23.33
2022-11-29T13:28:52.071Z,26.17
2022-11-29T13:31:25.286Z,26.80
2022-11-29T13:34:06.015Z,24.35
2022-11-29T13:36:47.694Z,24.90
2022-11-29T13:39:34.167Z,26.58
2022-11-29T13:42:13.158Z,26.13
2022-11-29T13:44:53.514Z,26.25
2022-11-29T13:47:24.302Z,26.30
2022-11-29T13:50:00.334Z,26.05
2022-11-29T13:52:45.237Z,28.20
2022-11-29T13:55:31.606Z,30.60
2022-11-29T13:58:24.463Z,28.55
2022-11-29T14:01:01.243Z,28.63
2022-11-29T14:03:37.341Z,27.05
2022-11-29T14:06:18.613Z,27.63
2022-11-29T14:09:24.431Z,25.70
2022-11-29T14:12:05.338Z,26.63
2022-11-29T14:14:41.822Z,25.02
2022-11-29T14:17:35.252Z,26.95
2022-11-29T14:20:51.535Z,25.90
2022-11-29T14:23:41.987Z,27.52
2022-11-29T14:26:30.782Z,24.88
2022-11-29T14:29:02.091Z,26.35
2022-11-29T14:31:58.153Z,25.63
2022-11-29T14:34:49.163Z,24.13
2022-11-29T14:37:42.950Z,24.83
2022-11-29T14:40:35.236Z,23.83
2022-11-29T14:45:48.143Z,25.50
2022-11-29T14:48:28.702Z,25.93
2022-11-29T14:51:13.024Z,25.05
2022-11-29T14:53:44.879Z,27.48
2022-11-29T14:56:42.808Z,27.80
2022-11-29T14:59:50.576Z,26.70
2022-11-29T15:02:50.333Z,33.05
2022-11-29T15:05:25.633Z,29.88
2022-11-29T15:08:09.212Z,28.70
2022-11-29T15:10:44.193Z,27.50
2022-11-29T15:13:21.223Z,27.70
2022-11-29T15:16:22.119Z,28.83
2022-11-29T15:19:24.530Z,24.33
2022-11-29T15:22:07.812Z,24.33
2022-11-29T15:25:31.453Z,27.38
2022-11-29T15:28:03.131Z,24.27
2022-11-29T15:30:37.492Z,24.60
2022-11-29T15:33:10.563Z,25.48
2022-11-29T15:35:52.402Z,26.88
2022-11-29T15:38:24.172Z,24.55
2022-11-29T15:40:56.482Z,25.17
2022-11-29T15:43:32.821Z,23.27
2022-11-29T15:46:06.321Z,24.67
2022-11-29T15:48:36.971Z,24.10
2022-11-29T15:51:18.485Z,22.73
2022-11-29T15:54:10.101Z,22.63
2022-11-29T15:56:52.488Z,24.27
2022-11-29T15:59:39.219Z,24.75
2022-11-29T16:02:41.142Z,24.90
2022-11-29T16:05:22.597Z,21.77
2022-11-29T16:07:57.947Z,22.08
2022-11-29T16:10:37.429Z,23.05
2022-11-29T16:13:26.078Z,23.08
2022-11-29T16:16:10.715Z,23.15
2022-11-29T16:18:44.559Z,24.77
2022-11-29T16:21:26.968Z,21.98
2022-11-29T16:23:58.517Z,22.10
2022-11-29T16:26:32.637Z,21.83
2022-11-29T16:29:04.641Z,22.55
2022-11-29T16:31:40.693Z,22.33
2022-11-29T16:34:26.995Z,22.40
2022-11-29T16:37:06.720Z,21.15
2022-11-29T16:39:40.051Z,24.10
2022-11-29T16:42:24.968Z,22.17
2022-11-29T16:45:29.879Z,21.73
2022-11-29T16:48:00.693Z,23.05
2022-11-29T16:50:36.738Z,20.65
2022-11-29T16:53:35.227Z,20.10
2022-11-29T16:56:06.778Z,22.58
2022-11-29T16:59:16.665Z,22.80
2022-11-29T17:01:30.057Z,19.77
2022-11-29T17:04:08.584Z,22.27
2022-11-29T17:06:42.315Z,19.58
2022-11-29T17:09:23.113Z,21.83
2022-11-29T17:11:54.405Z,23.60
2022-11-29T17:14:25.712Z,20.92
2022-11-29T17:19:26.666Z,20.10
2022-11-29T17:22:03.680Z,24.45
2022-11-29T17:24:36.375Z,22.33
2022-11-29T17:27:07.656Z,22.75
2022-11-29T17:29:41.134Z,24.27
2022-11-29T17:32:13.642Z,23.05
2022-11-29T17:34:45.528Z,22.63
2022-11-29T17:37:18.249Z,23.67
2022-11-29T17:39:49.368Z,26.02
2022-11-29T17:42:23.220Z,24.73
2022-11-29T17:44:53.545Z,23.45
2022-11-29T17:47:24.849Z,24.17
2022-11-29T17:49:55.564Z,24.65
2022-11-29T17:52:28.337Z,24.58
2022-11-29T17:55:01.061Z,25.70
2022-11-29T17:57:33.811Z,26.40
2022-11-29T18:00:06.747Z,25.88
2022-11-29T18:02:37.944Z,29.63
2022-11-29T18:05:09.697Z,27.33
2022-11-29T18:07:58.264Z,25.30
2022-11-29T18:10:29.959Z,28.20
2022-11-29T18:13:01.568Z,27.42
2022-11-29T18:15:34.471Z,25.65
2022-11-29T18:18:07.091Z,24.20
2022-11-29T18:20:37.948Z,24.42
2022-11-29T18:23:10.559Z,26.20
2022-11-29T18:25:41.050Z,26.85
2022-11-29T18:28:14.731Z,25.83
2022-11-29T18:30:45.912Z,26.45
2022-11-29T18:33:17.149Z,25.35
2022-11-29T18:35:47.960Z,26.85
2022-11-29T18:38:21.872Z,28.35
2022-11-29T18:40:53.940Z,27.17
2022-11-29T18:43:29.080Z,25.95
2022-11-29T18:45:59.638Z,23.30
2022-11-29T18:48:33.147Z,27.80
2022-11-29T18:51:05.428Z,25.70
2022-11-29T18:53:46.930Z,25.70
2022-11-29T18:56:20.169Z,24.40
2022-11-29T18:58:58.474Z,26.10
2022-11-29T19:01:31.600Z,26.10
2022-11-29T19:04:04.519Z,24.17
2022-11-29T19:06:40.017Z,25.88
2022-11-29T19:09:16.069Z,23.80
2022-11-29T19:11:46.649Z,21.73
2022-11-29T19:14:20.920Z,26.35
2022-11-29T19:16:51.960Z,22.70
2022-11-29T19:19:26.609Z,23.58
2022-11-29T19:21:57.640Z,23.27
2022-11-29T19:27:01.558Z,21.17
2022-11-29T19:29:39.387Z,24.13
2022-11-29T19:32:12.245Z,23.73
2022-11-29T19:34:44.529Z,22.08
2022-11-29T19:37:20.768Z,23.98
2022-11-29T19:39:55.797Z,22.23
2022-11-29T19:43:13.099Z,22.52
2022-11-29T19:45:44.500Z,22.92
2022-11-29T19:48:17.353Z,22.70
2022-11-29T19:50:54.611Z,24.40
2022-11-29T19:53:28.822Z,22.10
2022-11-29T19:56:08.013Z,23.35
2022-11-29T19:58:42.076Z,24.42
2022-11-29T20:01:24.140Z,23.90
2022-11-29T20:04:00.258Z,24.05
2022-11-29T20:06:38.954Z,22.98
2022-11-29T20:09:24.961Z,23.85
2022-11-29T20:11:58.960Z,22.58
2022-11-29T20:14:29.638Z,25.35
2022-11-29T20:17:02.749Z,24.35
2022-11-29T20:19:38.409Z,22.02
2022-11-29T20:22:13.423Z,21.65
2022-11-29T20:24:45.546Z,21.65
2022-11-29T20:27:19.962Z,21.45
2022-11-29T20:29:50.823Z,22.92
2022-11-29T20:32:25.073Z,19.67
2022-11-29T20:34:59.909Z,26.05
2022-11-29T20:37:50.419Z,21.17
2022-11-29T20:40:31.150Z,19.60
2022-11-29T20:43:17.893Z,22.23
2022-11-29T20:45:54.416Z,18.77
2022-11-29T20:48:27.002Z,22.17
2022-11-29T20:51:03.990Z,20.25
2022-11-29T20:53:37.929Z,19.38
2022-11-29T20:56:10.976Z,20.27
2022-11-29T20:58:44.508Z,21.02
2022-11-29T21:01:16.555Z,21.23
2022-11-29T21:03:51.391Z,22.13
2022-11-29T21:06:27.394Z,20.65
2022-11-29T21:09:02.037Z,20.38
2022-11-29T21:14:06.908Z,21.23
2022-11-29T21:16:38.022Z,20.48
2022-11-29T21:21:54.308Z,21.20
2022-11-29T21:24:34.210Z,21.63
2022-11-29T21:27:05.620Z,21.80
2022-11-29T21:29:43.011Z,22.60
2022-11-29T21:32:23.400Z,22.05
2022-11-29T21:34:54.948Z,20.83
2022-11-29T21:37:31.916Z,24.33
2022-11-29T21:40:07.889Z,22.23
2022-11-29T21:42:40.631Z,22.98
2022-11-29T21:45:15.923Z,25.23
2022-11-29T21:47:46.919Z,25.70
2022-11-29T21:50:18.227Z,22.48
2022-11-29T21:52:54.131Z,20.40
2022-11-29T21:55:35.678Z,22.98
2022-11-29T21:58:06.428Z,20.58
2022-11-29T22:00:45.269Z,22.10
2022-11-29T22:03:28.904Z,20.92
2022-11-29T22:06:05.328Z,21.27
2022-11-29T22:08:37.369Z,20.45
2022-11-29T22:11:15.428Z,19.23
2022-11-29T22:14:00.260Z,18.60
2022-11-29T22:16:34.720Z,19.42
2022-11-29T22:19:05.857Z,19.63
2022-11-29T22:21:36.730Z,19.35
2022-11-29T22:24:07.630Z,21.35
2022-11-29T22:26:39.611Z,21.33
2022-11-29T22:29:10.111Z,19.40
2022-11-29T22:31:43.307Z,19.70
2022-11-29T22:34:13.951Z,19.42
2022-11-29T22:36:45.009Z,19.52
2022-11-29T22:39:15.421Z,20.30
2022-11-29T22:41:53.948Z,20.67
2022-11-29T22:44:26.350Z,20.15
2022-11-29T22:46:58.931Z,20.50
2022-11-29T22:49:33.669Z,20.63
2022-11-29T22:52:04.947Z,22.75
2022-11-29T22:54:35.518Z,20.23
2022-11-29T22:57:06.540Z,20.75
2022-11-29T22:59:37.069Z,19.75
2022-11-29T23:02:09.996Z,19.70
2022-11-29T23:04:40.990Z,20.08
2022-11-29T23:07:12.340Z,19.80
2022-11-29T23:09:42.681Z,20.20
2022-11-29T23:12:13.986Z,22.45
2022-11-29T23:14:45.276Z,19.08
2022-11-29T23:17:17.997Z,19.60
2022-11-29T23:19:48.261Z,19.75
2022-11-29T23:22:19.081Z,21.70
2022-11-29T23:24:49.990Z,21.48
2022-11-29T23:27:21.288Z,21.33
2022-11-29T23:29:52.033Z,21.75
2022-11-29T23:32:24.518Z,20.90
2022-11-29T23:34:55.239Z,19.85
2022-11-29T23:37:26.231Z,23.20
2022-11-29T23:39:56.921Z,21.40
2022-11-29T23:42:28.042Z,21.42
2022-11-29T23:44:58.627Z,21.25
2022-11-29T23:47:31.210Z,24.17
2022-11-29T23:50:01.650Z,21.42
2022-11-29T23:52:32.720Z,21.80
2022-11-29T23:55:06.583Z,20.93
2022-11-29T23:57:37.661Z,22.38
